createdAt,value
2019-02-22T00:00:34.201Z,102787.86
2019-02-22T00:03:03.114Z,102793.98
2019-02-22T00:05:31.987Z,102808.59
2019-02-22T00:08:00.798Z,102819.41
2019-02-22T00:10:29.726Z,102822.13
2019-02-22T00:12:58.749Z,102832.58
2019-02-22T00:15:27.661Z,102835.63
2019-02-22T00:17:56.499Z,102832.24
2019-02-22T00:20:25.420Z,102836.11
2019-02-22T00:22:54.340Z,102835.63
2019-02-22T00:25:24.839Z,102834.27
2019-02-22T00:27:53.737Z,102834.72
2019-02-22T00:30:22.652Z,102832.95
2019-02-22T00:32:51.462Z,102843.94
2019-02-22T00:35:20.304Z,102852.33
2019-02-22T00:37:49.450Z,102854.05
2019-02-22T00:40:18.303Z,102857.55
2019-02-22T00:42:47.232Z,102864.17
2019-02-22T00:45:16.064Z,102865.16
2019-02-22T00:47:44.983Z,102869.86
2019-02-22T00:50:14.039Z,102875.23
2019-02-22T00:52:45.702Z,102876.51
2019-02-22T00:55:14.620Z,102878.70
2019-02-22T00:57:43.638Z,102863.20
2019-02-22T01:00:12.608Z,102890.46
2019-02-22T01:02:41.553Z,102894.86
2019-02-22T01:05:10.592Z,102900.13
2019-02-22T01:15:39.690Z,102915.94
2019-02-22T01:18:08.555Z,102919.05
2019-02-22T01:20:37.484Z,102927.78
2019-02-22T01:23:06.418Z,102918.64
2019-02-22T01:25:35.840Z,102921.27
2019-02-22T01:28:04.733Z,102926.58
2019-02-22T01:30:33.562Z,102932.29
2019-02-22T01:33:02.417Z,102931.42
2019-02-22T01:35:31.822Z,102935.75
2019-02-22T01:38:00.971Z,102938.01
2019-02-22T01:40:43.070Z,102949.75
2019-02-22T01:43:03.635Z,102955.47
2019-02-22T01:45:32.505Z,102951.59
2019-02-22T01:48:02.718Z,102961.22
2019-02-22T01:50:31.890Z,102935.14
2019-02-22T01:53:01.159Z,102960.70
2019-02-22T01:55:29.975Z,102964.16
2019-02-22T01:57:58.907Z,102969.98
2019-02-22T02:00:28.079Z,102972.55
2019-02-22T02:02:57.310Z,102965.96
2019-02-22T02:05:26.171Z,102976.15
2019-02-22T02:07:55.382Z,102983.08
2019-02-22T02:10:24.515Z,102983.56
2019-02-22T02:12:53.434Z,102987.92
2019-02-22T02:15:22.458Z,102996.31
2019-02-22T02:17:51.431Z,103008.64
2019-02-22T02:20:20.369Z,102999.43
2019-02-22T02:22:49.257Z,102994.69
2019-02-22T02:25:18.470Z,102989.48
2019-02-22T02:27:47.342Z,102995.09
2019-02-22T02:30:16.217Z,102998.15
2019-02-22T02:32:45.643Z,103004.73
2019-02-22T02:35:14.503Z,103002.58
2019-02-22T02:37:43.833Z,103004.80
2019-02-22T02:40:13.254Z,103011.31
2019-02-22T02:42:42.177Z,103013.95
2019-02-22T02:45:11.167Z,103007.05
2019-02-22T02:47:40.401Z,103004.86
2019-02-22T02:50:09.318Z,103016.30
2019-02-22T02:52:38.158Z,103024.55
2019-02-22T02:55:24.872Z,103031.61
2019-02-22T02:57:53.672Z,103039.50
2019-02-22T03:00:22.702Z,103034.17
2019-02-22T03:02:51.648Z,103043.03
2019-02-22T03:05:22.228Z,103046.18
2019-02-22T03:07:51.221Z,103046.60
2019-02-22T03:10:20.125Z,103055.75
2019-02-22T03:12:49.049Z,103058.09
2019-02-22T03:15:19.225Z,103059.83
2019-02-22T03:17:48.970Z,103060.17
2019-02-22T03:20:17.898Z,103061.91
2019-02-22T03:22:46.836Z,103059.83
2019-02-22T03:25:15.828Z,103059.80
2019-02-22T03:27:44.643Z,103064.19
2019-02-22T03:30:13.631Z,103067.59
2019-02-22T03:32:43.033Z,103068.11
2019-02-22T03:35:12.036Z,103078.28
2019-02-22T03:37:41.004Z,103084.35
2019-02-22T03:40:09.969Z,103090.97
2019-02-22T03:42:39.213Z,103101.05
2019-02-22T03:45:08.207Z,103093.72
2019-02-22T03:47:37.323Z,103097.66
2019-02-22T03:50:06.458Z,103109.09
2019-02-22T03:52:39.169Z,103111.72
2019-02-22T03:55:08.867Z,103116.25
2019-02-22T03:57:37.769Z,103126.84
2019-02-22T04:00:08.020Z,103130.50
2019-02-22T04:02:36.875Z,103142.64
2019-02-22T04:05:06.084Z,103155.22
2019-02-22T04:07:35.255Z,103159.23
2019-02-22T04:10:04.428Z,103163.61
2019-02-22T04:12:33.504Z,103174.36
2019-02-22T04:15:02.543Z,103181.94
2019-02-22T04:17:31.430Z,103186.45
2019-02-22T04:20:00.523Z,103191.72
2019-02-22T04:22:29.376Z,103187.38
2019-02-22T04:24:58.203Z,103190.38
2019-02-22T04:27:27.749Z,103199.70
2019-02-22T04:29:56.582Z,103212.42
2019-02-22T04:32:25.485Z,103217.19
2019-02-22T04:34:54.647Z,103231.66
2019-02-22T04:37:23.484Z,103236.87
2019-02-22T04:39:52.305Z,103240.44
2019-02-22T04:42:21.204Z,103244.84
2019-02-22T04:44:50.323Z,103239.26
2019-02-22T04:47:19.114Z,103234.75
2019-02-22T04:49:49.174Z,103249.72
2019-02-22T04:52:18.014Z,103253.20
2019-02-22T04:54:47.220Z,103258.53
2019-02-22T04:57:16.132Z,103256.02
2019-02-22T04:59:45.416Z,103267.42
2019-02-22T05:02:14.541Z,103268.66
2019-02-22T05:04:43.785Z,103243.86
2019-02-22T05:07:12.722Z,103280.16
2019-02-22T05:09:41.603Z,103283.11
2019-02-22T05:12:11.420Z,103292.79
2019-02-22T05:14:40.675Z,103296.27
2019-02-22T05:17:09.559Z,103305.07
2019-02-22T05:19:38.688Z,103312.54
2019-02-22T05:22:08.325Z,103312.97
2019-02-22T05:24:37.492Z,103318.20
2019-02-22T05:27:06.738Z,103322.59
2019-02-22T05:29:35.793Z,103328.33
2019-02-22T05:32:05.212Z,103324.48
2019-02-22T05:34:34.131Z,103339.33
2019-02-22T05:37:03.453Z,103338.44
2019-02-22T05:39:36.064Z,103335.86
2019-02-22T05:42:05.258Z,103334.98
2019-02-22T05:44:34.377Z,103339.37
2019-02-22T05:47:12.040Z,103348.08
2019-02-22T05:49:50.094Z,103350.30
2019-02-22T05:52:19.971Z,103353.41
2019-02-22T05:54:49.104Z,103359.13
2019-02-22T05:57:19.437Z,103368.30
2019-02-22T05:59:48.326Z,103371.38
2019-02-22T06:02:17.333Z,103388.87
2019-02-22T06:04:46.127Z,103391.12
2019-02-22T06:07:15.085Z,103397.23
2019-02-22T06:09:43.982Z,103394.19
2019-02-22T06:12:12.798Z,103404.25
2019-02-22T06:14:42.033Z,103404.70
2019-02-22T06:17:14.563Z,103413.91
2019-02-22T06:19:41.869Z,103423.98
2019-02-22T06:22:10.823Z,103415.66
2019-02-22T06:24:39.645Z,103430.06
2019-02-22T06:27:08.691Z,103425.28
2019-02-22T06:29:37.585Z,103428.78
2019-02-22T06:32:06.523Z,103435.33
2019-02-22T06:34:35.500Z,103444.50
2019-02-22T06:37:04.456Z,103460.26
2019-02-22T06:39:34.421Z,103462.88
2019-02-22T06:42:03.210Z,103470.77
2019-02-22T06:44:32.537Z,103479.06
2019-02-22T06:47:01.564Z,103494.37
2019-02-22T06:49:30.730Z,103496.53
2019-02-22T06:51:59.608Z,103500.48
2019-02-22T06:54:29.377Z,103507.02
2019-02-22T06:56:58.347Z,103503.55
2019-02-22T06:59:27.219Z,103514.46
2019-02-22T07:04:48.885Z,103520.12
2019-02-22T07:07:17.685Z,103524.08
2019-02-22T07:09:46.497Z,103528.43
2019-02-22T07:12:22.749Z,103538.06
2019-02-22T07:14:51.551Z,103554.66
2019-02-22T07:17:20.362Z,103556.84
2019-02-22T07:19:49.514Z,103561.67
2019-02-22T07:22:18.901Z,103570.43
2019-02-22T07:24:48.959Z,103569.08
2019-02-22T07:27:18.084Z,103580.48
2019-02-22T07:29:47.511Z,103582.23
2019-02-22T07:32:16.782Z,103592.70
2019-02-22T07:34:45.716Z,103595.78
2019-02-22T07:37:14.810Z,103604.97
2019-02-22T07:39:48.353Z,103603.20
2019-02-22T07:42:18.210Z,103610.19
2019-02-22T07:44:47.963Z,103616.30
2019-02-22T07:47:16.871Z,103626.38
2019-02-22T07:49:46.667Z,103646.03
2019-02-22T07:52:17.090Z,103650.43
2019-02-22T07:54:46.252Z,103657.80
2019-02-22T07:57:15.390Z,103659.02
2019-02-22T07:59:44.533Z,103667.79
2019-02-22T08:02:14.521Z,103672.56
2019-02-22T08:04:45.736Z,103680.91
2019-02-22T08:07:17.985Z,103688.73
2019-02-22T08:09:46.963Z,103691.82
2019-02-22T08:12:15.808Z,103694.88
2019-02-22T08:14:44.704Z,103689.56
2019-02-22T08:17:14.735Z,103701.74
2019-02-22T08:19:44.185Z,103706.16
2019-02-22T08:22:13.768Z,103710.92
2019-02-22T08:24:45.651Z,103721.53
2019-02-22T08:27:14.928Z,103721.00
2019-02-22T08:29:44.355Z,103723.63
2019-02-22T08:32:13.392Z,103731.02
2019-02-22T08:34:42.606Z,103731.54
2019-02-22T08:37:11.599Z,103739.36
2019-02-22T08:39:40.690Z,103749.30
2019-02-22T08:42:09.544Z,103754.47
2019-02-22T08:44:38.825Z,103757.97
2019-02-22T08:47:07.613Z,103772.63
2019-02-22T08:49:37.960Z,103775.14
2019-02-22T08:52:07.517Z,103773.87
2019-02-22T08:54:46.599Z,103782.44
2019-02-22T08:57:09.045Z,103786.06
2019-02-22T08:59:38.343Z,103786.88
2019-02-22T09:02:07.604Z,103793.11
2019-02-22T09:04:36.692Z,103796.89
2019-02-22T09:07:05.980Z,103805.56
2019-02-22T09:09:35.100Z,103810.85
2019-02-22T09:12:04.163Z,103774.92
2019-02-22T09:14:33.290Z,103808.27
2019-02-22T09:17:03.045Z,103804.73
2019-02-22T09:19:32.442Z,103827.38
2019-02-22T09:22:02.371Z,103830.48
2019-02-22T09:24:32.206Z,103829.36
2019-02-22T09:27:01.642Z,103838.45
2019-02-22T09:29:30.937Z,103839.41
2019-02-22T09:32:00.441Z,103848.38
2019-02-22T09:34:29.369Z,103851.52
2019-02-22T09:36:58.779Z,103838.24
2019-02-22T09:39:28.328Z,103849.68
2019-02-22T09:41:57.951Z,103854.22
2019-02-22T09:44:28.242Z,103856.44
2019-02-22T09:46:57.089Z,103864.73
2019-02-22T09:49:26.303Z,103876.86
2019-02-22T09:51:55.541Z,103875.02
2019-02-22T09:54:25.451Z,103883.38
2019-02-22T09:56:54.306Z,103883.75
2019-02-22T09:59:24.180Z,103885.29
2019-02-22T10:01:53.359Z,103888.88
2019-02-22T10:04:22.202Z,103887.44
2019-02-22T10:06:51.245Z,103886.10
2019-02-22T10:09:21.566Z,103888.81
2019-02-22T10:11:50.694Z,103892.75
2019-02-22T10:14:20.291Z,103894.20
2019-02-22T10:16:49.413Z,103896.74
2019-02-22T10:19:18.574Z,103902.49
2019-02-22T10:21:48.142Z,103903.57
2019-02-22T10:24:17.345Z,103908.09
2019-02-22T10:26:46.810Z,103907.22
2019-02-22T10:29:17.106Z,103909.08
2019-02-22T10:31:45.907Z,103809.30
2019-02-22T10:34:15.156Z,103907.50
2019-02-22T10:36:45.518Z,103914.88
2019-02-22T10:39:14.538Z,103912.66
2019-02-22T10:41:43.827Z,103914.22
2019-02-22T10:44:17.690Z,103899.11
2019-02-22T10:46:43.697Z,103902.44
2019-02-22T10:49:13.237Z,103906.50
2019-02-22T10:51:42.243Z,103915.03
2019-02-22T10:54:11.281Z,103920.60
2019-02-22T10:56:40.105Z,103929.72
2019-02-22T10:59:11.969Z,103926.64
2019-02-22T11:01:41.192Z,103929.16
2019-02-22T11:04:10.006Z,103930.58
2019-02-22T11:06:39.337Z,103918.03
2019-02-22T11:09:08.548Z,103917.69
2019-02-22T11:11:37.526Z,103917.73
2019-02-22T11:14:06.689Z,103924.73
2019-02-22T11:16:35.493Z,103930.81
2019-02-22T11:19:05.119Z,103927.85
2019-02-22T11:21:36.318Z,103914.33
2019-02-22T11:24:04.983Z,103924.73
2019-02-22T11:26:34.023Z,103916.91
2019-02-22T11:29:03.504Z,103919.97
2019-02-22T11:31:32.737Z,103925.78
2019-02-22T11:34:01.685Z,103927.93
2019-02-22T11:36:30.920Z,103929.34
2019-02-22T11:39:00.539Z,103926.69
2019-02-22T11:41:30.016Z,103939.45
2019-02-22T11:43:59.446Z,103938.19
2019-02-22T11:46:28.593Z,103946.48
2019-02-22T11:48:57.959Z,103948.78
2019-02-22T11:51:26.695Z,103949.16
2019-02-22T11:53:55.806Z,103947.88
2019-02-22T11:56:25.149Z,103941.36
2019-02-22T11:58:54.055Z,103944.87
2019-02-22T12:01:23.500Z,103937.86
2019-02-22T12:03:52.371Z,103934.78
2019-02-22T12:06:21.171Z,103941.83
2019-02-22T12:08:50.003Z,103940.06
2019-02-22T12:11:19.180Z,103940.91
2019-02-22T12:13:48.130Z,103941.83
2019-02-22T12:16:17.336Z,103945.75
2019-02-22T12:18:47.239Z,103942.70
2019-02-22T12:21:16.541Z,103949.63
2019-02-22T12:23:45.546Z,103950.09
2019-02-22T12:26:14.775Z,103958.45
2019-02-22T12:28:43.930Z,103956.69
2019-02-22T12:31:12.910Z,103963.67
2019-02-22T12:33:42.582Z,103964.50
2019-02-22T12:36:11.464Z,103960.09
2019-02-22T12:38:40.516Z,103955.72
2019-02-22T12:41:37.243Z,103957.37
2019-02-22T12:44:06.821Z,103956.98
2019-02-22T12:46:35.630Z,103955.97
2019-02-22T12:49:04.827Z,103953.94
2019-02-22T12:51:33.693Z,103958.24
2019-02-22T12:54:02.585Z,103964.28
2019-02-22T12:56:56.150Z,103959.10
2019-02-22T12:59:01.948Z,103960.12
2019-02-22T13:01:30.805Z,103974.92
2019-02-22T13:03:59.878Z,103983.70
2019-02-22T13:06:31.716Z,103983.77
2019-02-22T13:09:01.491Z,103978.52
2019-02-22T13:11:30.790Z,103952.20
2019-02-22T13:14:00.152Z,103996.95
2019-02-22T13:16:29.026Z,103997.89
2019-02-22T13:18:58.014Z,103999.09
2019-02-22T13:21:27.586Z,104000.41
2019-02-22T13:23:57.450Z,104006.95
2019-02-22T13:26:26.675Z,103996.88
2019-02-22T13:29:38.446Z,103989.50
2019-02-22T13:35:37.266Z,103981.47
2019-02-22T13:38:18.182Z,103973.19
2019-02-22T13:40:49.709Z,103972.66
2019-02-22T13:43:42.799Z,103975.15
2019-02-22T13:46:15.130Z,103977.90
2019-02-22T13:48:45.424Z,103984.86
2019-02-22T13:51:14.554Z,103958.91
2019-02-22T13:53:55.960Z,103976.87
2019-02-22T14:00:23.426Z,103968.78
2019-02-22T14:03:01.787Z,103980.94
2019-02-22T14:05:29.614Z,103988.84
2019-02-22T14:08:47.610Z,103994.16
2019-02-22T14:11:36.369Z,103994.20
2019-02-22T14:14:08.193Z,103990.42
2019-02-22T14:17:00.128Z,103989.67
2019-02-22T14:19:31.153Z,103996.45
2019-02-22T14:22:19.982Z,103998.30
2019-02-22T14:24:46.632Z,104007.75
2019-02-22T14:27:16.861Z,104008.50
2019-02-22T14:29:45.852Z,104017.77
2019-02-22T14:32:14.667Z,104013.94
2019-02-22T14:34:43.667Z,104012.50
2019-02-22T14:37:12.584Z,104017.23
2019-02-22T14:39:41.383Z,104005.96
2019-02-22T14:42:10.373Z,104008.98
2019-02-22T14:44:40.679Z,104006.16
2019-02-22T14:47:09.527Z,104005.84
2019-02-22T14:49:38.362Z,104005.02
2019-02-22T14:52:07.178Z,104009.94
2019-02-22T14:54:37.604Z,104012.55
2019-02-22T14:57:06.641Z,104011.41
2019-02-22T14:59:35.532Z,104014.48
2019-02-22T15:02:04.839Z,104022.86
2019-02-22T15:04:36.143Z,104018.97
2019-02-22T15:07:06.410Z,104022.41
2019-02-22T15:09:35.192Z,104018.10
2019-02-22T15:12:04.234Z,104027.77
2019-02-22T15:14:33.071Z,104031.28
2019-02-22T15:17:20.025Z,104024.25
2019-02-22T15:19:48.854Z,104025.12
2019-02-22T15:22:17.654Z,104037.00
2019-02-22T15:24:46.536Z,104040.95
2019-02-22T15:27:15.366Z,104036.11
2019-02-22T15:29:44.810Z,104037.44
2019-02-22T15:32:13.809Z,104033.02
2019-02-22T15:34:42.826Z,104029.08
2019-02-22T15:37:11.957Z,104032.15
2019-02-22T15:39:40.878Z,104037.88
2019-02-22T15:42:09.852Z,104039.61
2019-02-22T15:44:38.827Z,104037.37
2019-02-22T15:47:11.874Z,104039.98
2019-02-22T15:49:38.262Z,104033.91
2019-02-22T15:52:07.159Z,104040.92
2019-02-22T15:54:36.162Z,104038.30
2019-02-22T15:57:05.120Z,104043.13
2019-02-22T15:59:33.992Z,103988.27
2019-02-22T16:02:03.001Z,104052.33
2019-02-22T16:04:37.662Z,104063.26
2019-02-22T16:07:06.774Z,104054.02
2019-02-22T16:09:36.174Z,104061.91
2019-02-22T16:12:05.212Z,104067.16
2019-02-22T16:14:47.072Z,104062.33
2019-02-22T16:17:29.706Z,104072.42
2019-02-22T16:19:58.918Z,104082.91
2019-02-22T16:22:27.923Z,104089.48
2019-02-22T16:24:56.791Z,104090.34
2019-02-22T16:27:25.885Z,104090.63
2019-02-22T16:29:54.954Z,104082.27
2019-02-22T16:32:24.620Z,104072.19
2019-02-22T16:34:55.736Z,104081.83
2019-02-22T16:37:24.601Z,104096.58
2019-02-22T16:39:53.531Z,104107.84
2019-02-22T16:42:22.420Z,104103.20
2019-02-22T16:44:51.261Z,104096.23
2019-02-22T16:47:20.149Z,104098.38
2019-02-22T16:49:48.938Z,104094.83
2019-02-22T16:52:18.447Z,104097.39
2019-02-22T16:54:47.713Z,104094.82
2019-02-22T16:57:18.575Z,104094.33
2019-02-22T16:59:49.525Z,104102.98
2019-02-22T17:02:18.350Z,104102.91
2019-02-22T17:04:52.396Z,104099.34
2019-02-22T17:07:21.394Z,104103.80
2019-02-22T17:09:51.456Z,104116.25
2019-02-22T17:12:20.780Z,104124.17
2019-02-22T17:14:50.011Z,104130.17
2019-02-22T17:17:20.205Z,104138.04
2019-02-22T17:19:49.257Z,104141.27
2019-02-22T17:22:18.045Z,104139.00
2019-02-22T17:24:47.609Z,104148.80
2019-02-22T17:27:17.159Z,104142.27
2019-02-22T17:29:46.133Z,104148.91
2019-02-22T17:32:15.021Z,104142.94
2019-02-22T17:34:46.408Z,104137.95
2019-02-22T17:37:33.598Z,104138.76
2019-02-22T17:40:07.682Z,104134.19
2019-02-22T17:42:38.071Z,104140.91
2019-02-22T17:45:07.870Z,104145.82
2019-02-22T17:47:38.011Z,104160.50
2019-02-22T17:50:06.895Z,104164.95
2019-02-22T17:52:41.166Z,104165.89
2019-02-22T17:55:10.244Z,104174.53
2019-02-22T17:57:39.651Z,104174.42
2019-02-22T18:03:00.069Z,104177.54
2019-02-22T18:05:31.919Z,104192.74
2019-02-22T18:08:00.845Z,104190.78
2019-02-22T18:10:30.047Z,104196.31
2019-02-22T18:12:59.179Z,104188.75
2019-02-22T18:15:29.969Z,104180.77
2019-02-22T18:17:58.784Z,104188.56
2019-02-22T18:20:30.197Z,104188.33
2019-02-22T18:23:01.201Z,104185.61
2019-02-22T18:25:30.250Z,104191.19
2019-02-22T18:27:59.117Z,104194.62
2019-02-22T18:30:28.279Z,104193.41
2019-02-22T18:32:57.338Z,104194.16
2019-02-22T18:35:26.482Z,104201.98
2019-02-22T18:37:55.319Z,104193.72
2019-02-22T18:40:24.517Z,104194.06
2019-02-22T18:42:53.459Z,104195.38
2019-02-22T18:45:22.873Z,104201.48
2019-02-22T18:47:52.111Z,104196.43
2019-02-22T18:50:23.345Z,104198.86
2019-02-22T18:52:52.280Z,104195.14
2019-02-22T18:55:21.226Z,104203.98
2019-02-22T18:57:50.188Z,104197.27
2019-02-22T19:00:20.337Z,104183.44
2019-02-22T19:02:49.244Z,104180.82
2019-02-22T19:05:22.209Z,104182.54
2019-02-22T19:11:03.889Z,104179.52
2019-02-22T19:13:32.856Z,104177.21
2019-02-22T19:16:02.277Z,104177.22
2019-02-22T19:18:33.243Z,104185.19
2019-02-22T19:21:03.737Z,104192.20
2019-02-22T19:23:32.929Z,104189.45
2019-02-22T19:26:03.006Z,104189.95
2019-02-22T19:28:32.140Z,104184.21
2019-02-22T19:31:01.110Z,104180.50
2019-02-22T19:33:31.011Z,104188.92
2019-02-22T19:36:00.269Z,104203.31
2019-02-22T19:38:29.442Z,104194.08
2019-02-22T19:40:58.494Z,104190.80
2019-02-22T19:43:27.796Z,104192.20
2019-02-22T19:45:56.848Z,104196.51
2019-02-22T19:48:27.611Z,104197.72
2019-02-22T19:50:56.587Z,104211.45
2019-02-22T19:53:27.973Z,104222.57
2019-02-22T19:55:57.723Z,104227.58
2019-02-22T19:58:30.158Z,104221.45
2019-02-22T20:00:59.105Z,104239.43
2019-02-22T20:03:28.171Z,104234.09
2019-02-22T20:05:57.231Z,104222.22
2019-02-22T20:08:28.521Z,104216.09
2019-02-22T20:10:57.703Z,104219.47
2019-02-22T20:13:27.025Z,104221.41
2019-02-22T20:15:58.863Z,104219.87
2019-02-22T20:18:28.057Z,104222.20
2019-02-22T20:20:57.051Z,104209.02
2019-02-22T20:23:27.190Z,104214.20
2019-02-22T20:25:55.988Z,104217.96
2019-02-22T20:28:25.541Z,104221.77
2019-02-22T20:30:55.000Z,104221.08
2019-02-22T20:33:23.793Z,104225.80
2019-02-22T20:35:52.864Z,104220.14
2019-02-22T20:38:22.169Z,104223.62
2019-02-22T20:40:51.590Z,104225.83
2019-02-22T20:43:20.436Z,104233.03
2019-02-22T20:45:50.949Z,104226.05
2019-02-22T20:48:19.856Z,104229.30
2019-02-22T20:50:50.542Z,104230.42
2019-02-22T20:53:19.497Z,104233.29
2019-02-22T20:55:49.830Z,104227.52
2019-02-22T20:58:18.808Z,104217.41
2019-02-22T21:00:47.601Z,104211.99
2019-02-22T21:03:17.089Z,104217.67
2019-02-22T21:05:46.383Z,104220.20
2019-02-22T21:08:15.464Z,104224.60
2019-02-22T21:10:44.906Z,104228.98
2019-02-22T21:13:16.486Z,104245.62
2019-02-22T21:15:46.009Z,104248.95
2019-02-22T21:18:16.589Z,104236.70
2019-02-22T21:20:45.507Z,104246.42
2019-02-22T21:23:14.694Z,104249.09
2019-02-22T21:25:59.697Z,104240.31
2019-02-22T21:28:27.781Z,104257.57
2019-02-22T21:30:56.751Z,104279.48
2019-02-22T21:33:25.995Z,104276.11
2019-02-22T21:35:54.852Z,104254.63
2019-02-22T21:38:24.820Z,104278.72
2019-02-22T21:40:54.359Z,104263.50
2019-02-22T21:43:24.044Z,104303.84
2019-02-22T21:45:52.885Z,104274.25
2019-02-22T21:48:27.558Z,104300.25
2019-02-22T21:50:53.072Z,104298.82
2019-02-22T21:53:22.023Z,104294.87
2019-02-22T21:55:54.044Z,104301.40
2019-02-22T21:58:24.318Z,104309.98
2019-02-22T22:00:53.139Z,104309.02
2019-02-22T22:03:21.972Z,104317.76
2019-02-22T22:05:51.529Z,104330.03
2019-02-22T22:08:21.277Z,104329.54
2019-02-22T22:10:51.373Z,104331.53
2019-02-22T22:13:20.944Z,104331.87
2019-02-22T22:15:50.036Z,104357.16
2019-02-22T22:18:19.395Z,104347.36
2019-02-22T22:20:48.691Z,104341.55
2019-02-22T22:23:17.734Z,104340.84
2019-02-22T22:25:47.099Z,104341.93
2019-02-22T22:28:17.163Z,104350.29
2019-02-22T22:30:46.745Z,104341.37
2019-02-22T22:33:15.972Z,104335.77
2019-02-22T22:35:44.957Z,104341.05
2019-02-22T22:38:13.844Z,104341.93
2019-02-22T22:40:42.750Z,104355.80
2019-02-22T22:43:11.734Z,104345.95
2019-02-22T22:45:43.183Z,104359.92
2019-02-22T22:48:12.528Z,104349.70
2019-02-22T22:50:41.778Z,104358.41
2019-02-22T22:53:10.711Z,104358.71
2019-02-22T22:55:40.586Z,104351.98
2019-02-22T22:58:09.470Z,104349.23
2019-02-22T23:01:05.453Z,104357.75
2019-02-22T23:03:34.768Z,104357.02
2019-02-22T23:06:03.918Z,104354.06
2019-02-22T23:08:33.522Z,104354.77
2019-02-22T23:11:03.519Z,104347.36
2019-02-22T23:13:33.131Z,104352.30
2019-02-22T23:16:02.785Z,104333.36
2019-02-22T23:18:32.220Z,104354.19
2019-02-22T23:21:02.540Z,104347.80
2019-02-22T23:23:31.382Z,104340.55
2019-02-22T23:26:00.515Z,104338.36
2019-02-22T23:28:29.694Z,104337.16
2019-02-22T23:30:59.207Z,104331.27
2019-02-22T23:33:30.983Z,104327.92
2019-02-22T23:36:00.383Z,104325.28
2019-02-22T23:38:29.394Z,104330.38
2019-02-22T23:40:58.264Z,104331.16
2019-02-22T23:43:27.346Z,104319.84
2019-02-22T23:45:57.630Z,104322.72
2019-02-22T23:48:27.048Z,104328.13
2019-02-22T23:50:56.540Z,104333.03
2019-02-22T23:53:25.417Z,104342.58
2019-02-22T23:55:54.417Z,104343.20
2019-02-22T23:58:24.060Z,104341.36
